createdAt,value
2023-05-15T00:00:52.771Z,11.53
2023-05-15T00:01:53.683Z,11.56
2023-05-15T00:02:54.521Z,11.52
2023-05-15T00:03:55.790Z,11.55
2023-05-15T00:04:56.194Z,11.58
2023-05-15T00:05:56.333Z,11.59
2023-05-15T00:06:56.827Z,11.56
2023-05-15T00:07:57.528Z,11.56
2023-05-15T00:08:58.469Z,11.55
2023-05-15T00:09:59.153Z,11.48
2023-05-15T00:11:07.706Z,11.56
2023-05-15T00:13:01.159Z,11.6
2023-05-15T00:14:01.726Z,11.53
2023-05-15T00:15:02.232Z,11.56
2023-05-15T00:16:03.831Z,11.53
2023-05-15T00:17:04.045Z,11.59
2023-05-15T00:18:04.869Z,11.52
2023-05-15T00:19:05.923Z,11.53
2023-05-15T00:20:07.076Z,11.56
2023-05-15T00:21:07.555Z,11.55
2023-05-15T00:22:08.087Z,11.55
2023-05-15T00:23:08.565Z,11.52
2023-05-15T00:24:09.654Z,11.49
2023-05-15T00:25:10.335Z,11.53
2023-05-15T00:26:11.737Z,11.59
2023-05-15T00:27:12.264Z,11.58
2023-05-15T00:28:13.188Z,11.58
2023-05-15T00:29:13.497Z,11.59
2023-05-15T00:30:14.436Z,11.44
2023-05-15T00:31:15.212Z,11.56
2023-05-15T00:32:16.031Z,11.49
2023-05-15T00:33:16.451Z,11.53
2023-05-15T00:34:16.956Z,11.45
2023-05-15T00:35:17.874Z,11.4
2023-05-15T00:36:18.086Z,11.52
2023-05-15T00:37:18.572Z,11.44
2023-05-15T00:38:19.271Z,11.43
2023-05-15T00:39:19.954Z,11.4
2023-05-15T00:40:20.674Z,11.43
2023-05-15T00:41:21.286Z,11.45
2023-05-15T00:42:22.224Z,11.41
2023-05-15T00:43:22.713Z,11.41
2023-05-15T00:44:23.199Z,11.41
2023-05-15T00:45:23.840Z,11.48
2023-05-15T00:46:24.102Z,11.49
2023-05-15T00:47:24.028Z,11.51
2023-05-15T00:48:24.435Z,11.45
2023-05-15T00:49:24.919Z,11.43
2023-05-15T00:50:25.747Z,11.4
2023-05-15T00:51:27.019Z,11.41
2023-05-15T00:52:27.728Z,11.4
2023-05-15T00:53:28.055Z,11.4
2023-05-15T00:54:28.685Z,11.34
2023-05-15T00:55:29.838Z,11.38
2023-05-15T00:57:30.100Z,11.41
2023-05-15T00:58:30.797Z,11.37
2023-05-15T00:59:31.493Z,11.37
2023-05-15T01:00:32.122Z,11.33
2023-05-15T01:01:32.623Z,11.4
2023-05-15T01:02:32.675Z,11.34
2023-05-15T01:03:33.346Z,11.38
2023-05-15T01:04:33.619Z,11.31
2023-05-15T01:05:33.943Z,11.38
2023-05-15T01:06:34.229Z,11.33
2023-05-15T01:07:34.555Z,11.34
2023-05-15T01:08:35.043Z,11.33
2023-05-15T01:09:35.729Z,11.31
2023-05-15T01:10:36.439Z,11.34
2023-05-15T01:11:37.011Z,11.27
2023-05-15T01:12:37.558Z,11.37
2023-05-15T01:13:38.266Z,11.33
2023-05-15T01:14:38.962Z,11.31
2023-05-15T01:15:39.876Z,11.34
2023-05-15T01:16:40.465Z,11.25
2023-05-15T01:17:41.125Z,11.3
2023-05-15T01:18:42.149Z,11.2
2023-05-15T01:19:42.880Z,11.25
2023-05-15T01:20:42.890Z,11.19
2023-05-15T01:21:43.335Z,11.23
2023-05-15T01:22:43.626Z,11.34
2023-05-15T01:23:44.145Z,11.2
2023-05-15T01:24:44.843Z,11.23
2023-05-15T01:25:45.382Z,11.2
2023-05-15T01:26:45.890Z,11.26
2023-05-15T01:27:46.868Z,11.23
2023-05-15T01:28:47.415Z,11.26
2023-05-15T01:29:48.131Z,11.25
2023-05-15T01:30:48.717Z,11.3
2023-05-15T01:31:50.831Z,11.23
2023-05-15T01:32:51.022Z,11.19
2023-05-15T01:33:51.632Z,11.2
2023-05-15T01:34:52.748Z,11.22
2023-05-15T01:35:53.572Z,11.22
2023-05-15T01:36:53.927Z,11.23
2023-05-15T01:37:54.242Z,11.2
2023-05-15T01:38:54.918Z,11.2
2023-05-15T01:39:55.482Z,11.16
2023-05-15T01:40:55.366Z,11.15
2023-05-15T01:41:56.147Z,11.2
2023-05-15T01:42:56.696Z,11.13
2023-05-15T01:43:57.219Z,11.13
2023-05-15T01:44:57.953Z,11.15
2023-05-15T01:45:58.745Z,11.16
2023-05-15T01:46:59.917Z,11.18
2023-05-15T01:48:00.155Z,11.13
2023-05-15T01:49:00.357Z,11.15
2023-05-15T01:50:01.287Z,11.19
2023-05-15T01:51:01.592Z,11.08
2023-05-15T01:52:02.620Z,11.15
2023-05-15T01:53:02.904Z,11.12
2023-05-15T01:54:03.829Z,11.1
2023-05-15T01:55:04.613Z,11.18
2023-05-15T01:56:05.326Z,11.13
2023-05-15T01:57:06.027Z,11.18
2023-05-15T01:58:06.738Z,11.1
2023-05-15T01:59:07.253Z,11.18
2023-05-15T02:00:08.147Z,11.19
2023-05-15T02:01:08.448Z,11.08
2023-05-15T02:02:09.755Z,11.18
2023-05-15T02:03:09.854Z,11.15
2023-05-15T02:04:10.235Z,11.04
2023-05-15T02:05:10.939Z,11.16
2023-05-15T02:06:11.654Z,11.13
2023-05-15T02:07:12.171Z,11.15
2023-05-15T02:08:12.857Z,11.15
2023-05-15T02:09:13.137Z,11.16
2023-05-15T02:10:13.851Z,11.16
2023-05-15T02:11:14.354Z,11.15
2023-05-15T02:12:14.808Z,11.23
2023-05-15T02:13:15.539Z,11.18
2023-05-15T02:14:16.531Z,11.2
2023-05-15T02:15:17.241Z,11.26
2023-05-15T02:16:18.357Z,11.35
2023-05-15T02:17:19.645Z,11.34
2023-05-15T02:18:19.638Z,11.35
2023-05-15T02:19:20.540Z,11.37
2023-05-15T02:20:21.299Z,11.33
2023-05-15T02:21:21.884Z,11.4
2023-05-15T02:22:22.282Z,11.34
2023-05-15T02:23:23.385Z,11.3
2023-05-15T02:24:23.725Z,11.34
2023-05-15T02:25:24.544Z,11.34
2023-05-15T02:26:25.410Z,11.4
2023-05-15T02:27:25.911Z,11.4
2023-05-15T02:28:26.425Z,11.41
2023-05-15T02:29:27.231Z,11.37
2023-05-15T02:30:27.941Z,11.35
2023-05-15T02:31:30.122Z,11.4
2023-05-15T02:33:29.630Z,11.45
2023-05-15T02:34:30.315Z,11.45
2023-05-15T02:35:31.140Z,11.44
2023-05-15T02:36:31.857Z,11.44
2023-05-15T02:37:32.326Z,11.49
2023-05-15T02:38:32.834Z,11.44
2023-05-15T02:39:33.796Z,11.4
2023-05-15T02:40:33.698Z,11.52
2023-05-15T02:41:34.420Z,11.45
2023-05-15T02:42:35.218Z,11.44
2023-05-15T02:43:36.303Z,11.44
2023-05-15T02:44:36.885Z,11.43
2023-05-15T02:45:37.046Z,11.44
2023-05-15T02:46:37.457Z,11.4
2023-05-15T02:47:38.408Z,11.43
2023-05-15T02:48:38.120Z,11.4
2023-05-15T02:49:38.815Z,11.41
2023-05-15T02:50:38.907Z,11.38
2023-05-15T02:51:40.409Z,11.34
2023-05-15T02:52:40.498Z,11.4
2023-05-15T02:53:41.008Z,11.43
2023-05-15T02:54:41.926Z,11.38
2023-05-15T02:55:42.414Z,11.34
2023-05-15T02:56:43.128Z,11.44
2023-05-15T02:57:44.034Z,11.35
2023-05-15T02:58:44.805Z,11.37
2023-05-15T02:59:45.126Z,11.35
2023-05-15T03:00:45.849Z,11.38
2023-05-15T03:01:46.663Z,11.33
2023-05-15T03:02:47.711Z,11.43
2023-05-15T03:03:47.853Z,11.33
2023-05-15T03:04:48.522Z,11.35
2023-05-15T03:05:48.742Z,11.37
2023-05-15T03:06:49.257Z,11.31
2023-05-15T03:07:49.744Z,11.4
2023-05-15T03:08:50.158Z,11.37
2023-05-15T03:09:50.872Z,11.35
2023-05-15T03:10:51.219Z,11.35
2023-05-15T03:11:51.569Z,11.31
2023-05-15T03:12:52.213Z,11.44
2023-05-15T03:13:52.999Z,11.37
2023-05-15T03:14:53.776Z,11.38
2023-05-15T03:15:53.877Z,11.34
2023-05-15T03:16:54.736Z,11.41
2023-05-15T03:17:55.124Z,11.35
2023-05-15T03:18:55.148Z,11.4
2023-05-15T03:19:56.071Z,11.35
2023-05-15T03:20:57.216Z,11.38
2023-05-15T03:21:57.929Z,11.34
2023-05-15T03:22:58.775Z,11.43
2023-05-15T03:23:59.296Z,11.35
2023-05-15T03:25:00.198Z,11.33
2023-05-15T03:26:00.505Z,11.4
2023-05-15T03:27:01.451Z,11.35
2023-05-15T03:28:02.161Z,11.37
2023-05-15T03:29:02.948Z,11.37
2023-05-15T03:30:03.448Z,11.33
2023-05-15T03:31:04.208Z,11.35
2023-05-15T03:32:05.023Z,11.38
2023-05-15T03:33:05.860Z,11.35
2023-05-15T03:34:06.641Z,11.33
2023-05-15T03:35:07.166Z,11.34
2023-05-15T03:36:07.509Z,11.33
2023-05-15T03:37:08.608Z,11.31
2023-05-15T03:38:09.105Z,11.35
2023-05-15T03:39:09.800Z,11.31
2023-05-15T03:40:10.615Z,11.26
2023-05-15T03:41:10.904Z,11.34
2023-05-15T03:42:11.620Z,11.22
2023-05-15T03:43:12.092Z,11.34
2023-05-15T03:44:13.391Z,11.37
2023-05-15T03:45:14.110Z,11.4
2023-05-15T03:46:15.936Z,11.34
2023-05-15T03:47:15.952Z,11.4
2023-05-15T03:48:16.812Z,11.34
2023-05-15T03:49:17.712Z,11.34
2023-05-15T03:50:18.398Z,11.35
2023-05-15T03:51:18.875Z,11.38
2023-05-15T03:52:19.587Z,11.34
2023-05-15T03:53:20.070Z,11.38
2023-05-15T03:54:20.792Z,11.37
2023-05-15T03:55:21.928Z,11.43
2023-05-15T03:56:22.042Z,11.43
2023-05-15T03:57:22.434Z,11.44
2023-05-15T03:58:23.375Z,11.43
2023-05-15T03:59:24.075Z,11.41
2023-05-15T04:00:25.682Z,11.44
2023-05-15T04:02:26.033Z,11.44
2023-05-15T04:03:26.774Z,11.56
2023-05-15T04:04:26.249Z,11.53
2023-05-15T04:05:27.792Z,11.52
2023-05-15T04:06:27.912Z,11.58
2023-05-15T04:07:28.810Z,11.53
2023-05-15T04:08:29.370Z,11.56
2023-05-15T04:09:29.881Z,11.56
2023-05-15T04:10:30.755Z,11.6
2023-05-15T04:11:31.265Z,11.59
2023-05-15T04:12:31.573Z,11.58
2023-05-15T04:13:32.262Z,11.51
2023-05-15T04:14:32.801Z,11.53
2023-05-15T04:15:34.232Z,11.59
2023-05-15T04:16:34.681Z,11.58
2023-05-15T04:17:35.373Z,11.55
2023-05-15T04:18:36.617Z,11.56
2023-05-15T04:19:36.666Z,11.52
2023-05-15T04:20:36.561Z,11.56
2023-05-15T04:21:37.266Z,11.52
2023-05-15T04:22:38.165Z,11.55
2023-05-15T04:23:38.785Z,11.59
2023-05-15T04:24:39.475Z,11.6
2023-05-15T04:25:40.202Z,11.59
2023-05-15T04:26:41.232Z,11.55
2023-05-15T04:27:42.129Z,11.53
2023-05-15T04:29:43.448Z,11.6
2023-05-15T04:30:44.164Z,11.56
2023-05-15T04:31:44.760Z,11.6
2023-05-15T04:32:45.572Z,11.56
2023-05-15T04:33:46.120Z,11.68
2023-05-15T04:34:47.019Z,11.56
2023-05-15T04:35:47.327Z,11.65
2023-05-15T04:36:48.651Z,11.53
2023-05-15T04:37:48.424Z,11.6
2023-05-15T04:38:48.723Z,11.63
2023-05-15T04:39:49.429Z,11.59
2023-05-15T04:40:49.921Z,11.59
2023-05-15T04:41:50.623Z,11.68
2023-05-15T04:42:51.323Z,11.63
2023-05-15T04:43:52.438Z,11.56
2023-05-15T04:44:53.428Z,11.63
2023-05-15T04:45:54.535Z,11.63
2023-05-15T04:46:54.953Z,11.63
2023-05-15T04:47:55.864Z,11.63
2023-05-15T04:48:56.297Z,11.63
2023-05-15T04:49:57.016Z,11.63
2023-05-15T04:50:57.510Z,11.67
2023-05-15T04:51:58.226Z,11.67
2023-05-15T04:52:58.971Z,11.6
2023-05-15T04:53:59.208Z,11.63
2023-05-15T04:54:59.886Z,11.63
2023-05-15T04:56:00.458Z,11.7
2023-05-15T04:57:00.975Z,11.62
2023-05-15T04:58:01.295Z,11.62
2023-05-15T04:59:01.529Z,11.67
2023-05-15T05:00:02.496Z,11.68
2023-05-15T05:01:04.912Z,11.63
2023-05-15T05:02:03.717Z,11.7
2023-05-15T05:03:04.468Z,11.7
2023-05-15T05:04:05.740Z,11.8
2023-05-15T05:05:05.816Z,11.78
2023-05-15T05:06:06.800Z,11.8
2023-05-15T05:07:07.499Z,11.86
2023-05-15T05:08:08.109Z,11.83
2023-05-15T05:09:09.425Z,11.81
2023-05-15T05:10:10.019Z,11.85
2023-05-15T05:11:10.118Z,11.88
2023-05-15T05:12:10.835Z,11.85
2023-05-15T05:13:11.755Z,11.85
2023-05-15T05:14:12.376Z,11.85
2023-05-15T05:15:13.092Z,11.91
2023-05-15T05:16:14.537Z,11.89
2023-05-15T05:17:15.266Z,11.88
2023-05-15T05:18:16.048Z,11.93
2023-05-15T05:19:17.241Z,11.89
2023-05-15T05:20:18.754Z,11.99
2023-05-15T05:22:17.754Z,11.99
2023-05-15T05:23:18.331Z,12.02
2023-05-15T05:24:18.778Z,12.05
2023-05-15T05:25:19.756Z,12.05
2023-05-15T05:26:20.353Z,12.1
2023-05-15T05:27:20.859Z,12.11
2023-05-15T05:28:20.952Z,12.05
2023-05-15T05:29:21.667Z,12.12
2023-05-15T05:30:21.979Z,12.14
2023-05-15T05:31:22.815Z,12.14
2023-05-15T05:32:23.541Z,12.07
2023-05-15T05:33:24.424Z,12.14
2023-05-15T05:34:25.123Z,12.15
2023-05-15T05:35:26.232Z,12.12
2023-05-15T05:36:25.870Z,12.08
2023-05-15T05:37:26.835Z,12.1
2023-05-15T05:38:27.181Z,12.18
2023-05-15T05:39:27.882Z,12.18
2023-05-15T05:40:28.390Z,12.08
2023-05-15T05:41:28.688Z,12.17
2023-05-15T05:42:29.812Z,12.11
2023-05-15T05:43:30.708Z,12.17
2023-05-15T05:44:31.544Z,12.18
2023-05-15T05:45:32.774Z,12.26
2023-05-15T05:46:32.823Z,12.26
2023-05-15T05:47:32.819Z,12.15
2023-05-15T05:48:33.512Z,12.18
2023-05-15T05:49:34.313Z,12.17
2023-05-15T05:50:35.514Z,12.2
2023-05-15T05:51:36.213Z,12.23
2023-05-15T05:52:37.127Z,12.17
2023-05-15T05:53:39.641Z,12.18
2023-05-15T05:54:37.085Z,12.14
2023-05-15T05:55:37.603Z,12.21
2023-05-15T05:56:38.311Z,12.2
2023-05-15T05:57:39.438Z,12.21
2023-05-15T05:58:40.238Z,12.2
2023-05-15T05:59:40.769Z,12.21
2023-05-15T06:00:41.688Z,12.23
2023-05-15T06:01:42.667Z,12.18
2023-05-15T06:02:43.716Z,12.08
2023-05-15T06:03:44.158Z,12.18
2023-05-15T06:04:44.530Z,12.2
2023-05-15T06:05:44.532Z,12.17
2023-05-15T06:06:45.454Z,12.15
2023-05-15T06:07:46.177Z,12.18
2023-05-15T06:08:46.646Z,12.2
2023-05-15T06:09:47.915Z,12.21
2023-05-15T06:10:48.437Z,12.23
2023-05-15T06:11:48.922Z,12.23
2023-05-15T06:12:49.842Z,12.3
2023-05-15T06:13:50.557Z,12.29
2023-05-15T06:14:51.278Z,12.32
2023-05-15T06:15:51.435Z,12.29
2023-05-15T06:16:52.492Z,12.32
2023-05-15T06:17:53.498Z,12.39
2023-05-15T06:18:54.135Z,12.44
2023-05-15T06:19:55.472Z,12.37
2023-05-15T06:20:55.809Z,12.39
2023-05-15T06:21:56.735Z,12.35
2023-05-15T06:22:57.286Z,12.37
2023-05-15T06:23:57.775Z,12.4
2023-05-15T06:24:58.567Z,12.55
2023-05-15T06:25:59.460Z,12.54
2023-05-15T06:26:59.980Z,12.57
2023-05-15T06:28:00.722Z,12.65
2023-05-15T06:29:01.237Z,12.66
2023-05-15T06:30:01.007Z,12.66
2023-05-15T06:31:01.364Z,12.68
2023-05-15T06:32:01.977Z,12.61
2023-05-15T06:33:02.689Z,12.8
2023-05-15T06:34:03.254Z,12.73
2023-05-15T06:35:04.169Z,12.8
2023-05-15T06:36:04.871Z,12.83
2023-05-15T06:37:05.394Z,12.81
2023-05-15T06:38:06.114Z,12.81
2023-05-15T06:39:06.794Z,12.76
2023-05-15T06:40:07.657Z,12.8
2023-05-15T06:41:08.376Z,12.83
2023-05-15T06:42:09.074Z,12.84
2023-05-15T06:43:09.820Z,12.81
2023-05-15T06:44:10.337Z,12.81
2023-05-15T06:45:11.533Z,12.8
2023-05-15T06:46:12.450Z,12.81
2023-05-15T06:47:13.025Z,12.83
2023-05-15T06:48:12.911Z,12.8
2023-05-15T06:49:12.795Z,12.8
2023-05-15T06:50:14.024Z,12.81
2023-05-15T06:51:13.956Z,12.86
2023-05-15T06:52:14.259Z,12.8
2023-05-15T06:53:15.017Z,12.81
2023-05-15T06:54:15.288Z,12.93
2023-05-15T06:55:16.712Z,12.87
2023-05-15T06:56:17.592Z,12.83
2023-05-15T06:57:17.898Z,12.84
2023-05-15T06:58:18.616Z,12.8
2023-05-15T06:59:19.633Z,12.8
2023-05-15T07:00:20.537Z,12.8
2023-05-15T07:01:20.914Z,12.81
2023-05-15T07:02:21.677Z,12.87
2023-05-15T07:03:21.480Z,12.8
2023-05-15T07:04:22.268Z,12.76
2023-05-15T07:05:23.270Z,12.8
2023-05-15T07:06:23.372Z,12.75
2023-05-15T07:07:24.110Z,12.81
2023-05-15T07:08:24.892Z,12.78
2023-05-15T07:09:25.749Z,12.9
2023-05-15T07:10:27.024Z,12.81
2023-05-15T07:11:26.983Z,12.78
2023-05-15T07:12:27.517Z,12.9
2023-05-15T07:13:28.641Z,12.84
2023-05-15T07:14:29.567Z,12.86
2023-05-15T07:16:30.377Z,12.84
2023-05-15T07:17:31.521Z,12.94
2023-05-15T07:18:32.064Z,12.94
2023-05-15T07:19:32.729Z,13.05
2023-05-15T07:20:36.559Z,13.02
2023-05-15T07:22:52.310Z,13.09
2023-05-15T07:23:35.327Z,13.11
2023-05-15T07:24:38.278Z,13.17
2023-05-15T07:26:59.232Z,13.26
2023-05-15T07:28:38.445Z,13.26
2023-05-15T07:29:38.616Z,13.24
2023-05-15T07:30:39.173Z,13.36
2023-05-15T07:31:39.972Z,13.46
2023-05-15T07:32:41.244Z,13.54
2023-05-15T07:33:42.116Z,13.55
2023-05-15T07:34:43.051Z,13.67
2023-05-15T07:35:43.490Z,13.75
2023-05-15T07:36:43.576Z,13.78
2023-05-15T07:37:43.871Z,13.91
2023-05-15T07:38:44.177Z,13.94
2023-05-15T07:39:45.040Z,14.07
2023-05-15T07:40:46.240Z,14.07
2023-05-15T07:41:47.084Z,14.19
2023-05-15T07:42:47.830Z,14.2
2023-05-15T07:43:48.548Z,14.2
2023-05-15T07:44:51.878Z,14.28
2023-05-15T07:46:50.687Z,14.26
2023-05-15T07:47:52.198Z,14.36
2023-05-15T07:48:52.031Z,14.38
2023-05-15T07:49:53.007Z,14.36
2023-05-15T07:50:53.765Z,14.38
2023-05-15T07:51:53.707Z,14.33
2023-05-15T07:52:54.471Z,14.37
2023-05-15T07:53:55.185Z,14.44
2023-05-15T07:54:55.967Z,14.45
2023-05-15T07:55:56.512Z,14.51
2023-05-15T07:56:57.280Z,14.71
2023-05-15T07:58:00.022Z,14.9
2023-05-15T07:59:58.990Z,15.11
2023-05-15T08:00:59.160Z,15.26
2023-05-15T08:01:59.955Z,15.36
2023-05-15T08:03:01.421Z,15.63
2023-05-15T08:04:01.624Z,15.76
2023-05-15T08:05:01.716Z,15.81
2023-05-15T08:06:02.012Z,15.76
2023-05-15T08:07:02.953Z,15.83
2023-05-15T08:08:03.899Z,15.87
2023-05-15T08:09:03.825Z,15.88
2023-05-15T08:10:04.961Z,15.94
2023-05-15T08:11:05.092Z,15.96
2023-05-15T08:12:05.629Z,15.96
2023-05-15T08:13:06.822Z,15.88
2023-05-15T08:14:07.053Z,15.94
2023-05-15T08:15:07.421Z,15.85
2023-05-15T08:16:08.109Z,15.9
2023-05-15T08:17:08.234Z,15.84
2023-05-15T08:18:09.274Z,15.72
2023-05-15T08:19:09.662Z,15.73
2023-05-15T08:20:09.932Z,15.67
2023-05-15T08:21:10.739Z,15.66
2023-05-15T08:22:10.891Z,15.55
2023-05-15T08:23:12.864Z,15.48
2023-05-15T08:25:12.370Z,15.41
2023-05-15T08:26:12.726Z,15.29
2023-05-15T08:27:13.686Z,15.33
2023-05-15T08:28:14.437Z,15.45
2023-05-15T08:29:15.161Z,15.45
2023-05-15T08:30:16.086Z,15.47
2023-05-15T08:31:17.446Z,15.51
2023-05-15T08:32:17.240Z,15.55
2023-05-15T08:33:18.102Z,15.59
2023-05-15T08:34:19.008Z,15.54
2023-05-15T08:35:18.738Z,15.51
2023-05-15T08:36:20.281Z,15.52
2023-05-15T08:37:20.305Z,15.54
2023-05-15T08:38:21.216Z,15.55
2023-05-15T08:39:22.020Z,15.45
2023-05-15T08:40:38.893Z,15.39
2023-05-15T08:41:41.213Z,15.3
2023-05-15T08:43:25.092Z,15.15
2023-05-15T08:44:25.253Z,14.97
2023-05-15T08:45:25.699Z,14.79
2023-05-15T08:46:25.828Z,14.61
2023-05-15T08:47:26.107Z,14.41
2023-05-15T08:48:26.683Z,14.36
2023-05-15T08:49:27.173Z,14.12
2023-05-15T08:50:27.554Z,13.91
2023-05-15T08:51:28.626Z,13.83
2023-05-15T08:52:28.825Z,13.73
2023-05-15T08:53:29.810Z,13.54
2023-05-15T08:54:30.820Z,13.5
2023-05-15T08:55:31.488Z,13.45
2023-05-15T08:56:31.841Z,13.27
2023-05-15T08:57:33.133Z,13.17
2023-05-15T08:58:33.826Z,13.05
2023-05-15T08:59:34.594Z,12.86
2023-05-15T09:00:34.534Z,12.86
2023-05-15T09:01:35.368Z,12.78
2023-05-15T09:02:36.667Z,12.75
2023-05-15T09:03:37.442Z,12.65
2023-05-15T09:04:37.476Z,12.61
2023-05-15T09:05:40.526Z,12.48
2023-05-15T09:07:39.873Z,12.39
2023-05-15T09:08:40.788Z,12.29
2023-05-15T09:09:41.682Z,12.21
2023-05-15T09:10:42.645Z,12.1
2023-05-15T09:11:43.889Z,12.03
2023-05-15T09:12:44.900Z,12.02
2023-05-15T09:13:45.646Z,11.99
2023-05-15T09:14:46.623Z,11.89
2023-05-15T09:15:47.395Z,11.97
2023-05-15T09:16:48.710Z,11.97
2023-05-15T09:17:48.609Z,11.83
2023-05-15T09:18:48.866Z,11.83
2023-05-15T09:19:49.248Z,11.83
2023-05-15T09:20:49.367Z,11.86
2023-05-15T09:21:50.288Z,11.89
2023-05-15T09:22:50.324Z,11.88
2023-05-15T09:23:50.998Z,11.89
2023-05-15T09:24:51.765Z,11.93
2023-05-15T09:25:52.685Z,11.86
2023-05-15T09:26:53.400Z,11.89
2023-05-15T09:27:54.229Z,11.86
2023-05-15T09:28:55.218Z,11.76
2023-05-15T09:29:55.407Z,11.71
2023-05-15T09:30:56.424Z,11.68
2023-05-15T09:31:56.944Z,11.71
2023-05-15T09:32:58.094Z,11.83
2023-05-15T09:33:58.479Z,11.85
2023-05-15T09:34:59.616Z,11.91
2023-05-15T09:36:00.210Z,11.85
2023-05-15T09:37:01.075Z,11.89
2023-05-15T09:38:01.878Z,11.91
2023-05-15T09:39:02.015Z,11.93
2023-05-15T09:40:03.136Z,11.88
2023-05-15T09:41:04.110Z,11.95
2023-05-15T09:42:04.419Z,11.93
2023-05-15T09:43:05.153Z,11.97
2023-05-15T09:44:05.725Z,11.96
2023-05-15T09:45:06.608Z,11.93
2023-05-15T09:46:07.806Z,11.97
2023-05-15T09:47:08.300Z,11.93
2023-05-15T09:48:09.276Z,11.91
2023-05-15T09:49:09.602Z,11.86
2023-05-15T09:50:09.860Z,11.86
2023-05-15T09:51:09.806Z,11.93
2023-05-15T09:52:10.840Z,11.93
2023-05-15T09:53:10.889Z,11.97
2023-05-15T09:54:11.280Z,12.05
2023-05-15T09:55:12.055Z,12
2023-05-15T09:56:13.509Z,12.11
2023-05-15T09:57:14.530Z,12.15
2023-05-15T09:58:15.567Z,12.17
2023-05-15T09:59:16.441Z,12.15
2023-05-15T10:00:16.616Z,12.18
2023-05-15T10:01:17.013Z,12.32
2023-05-15T10:02:17.933Z,12.33
2023-05-15T10:03:18.058Z,12.44
2023-05-15T10:04:18.287Z,12.51
2023-05-15T10:05:31.904Z,12.57
2023-05-15T10:06:19.604Z,12.63
2023-05-15T10:07:19.776Z,12.65
2023-05-15T10:08:20.555Z,12.83
2023-05-15T10:09:21.938Z,12.91
2023-05-15T10:10:21.915Z,12.93
2023-05-15T10:11:22.655Z,13.06
2023-05-15T10:12:23.590Z,13.11
2023-05-15T10:13:23.548Z,13.19
2023-05-15T10:14:24.785Z,13.21
2023-05-15T10:15:24.667Z,13.31
2023-05-15T10:16:25.560Z,13.42
2023-05-15T10:17:26.845Z,13.4
2023-05-15T10:18:26.732Z,13.47
2023-05-15T10:19:27.368Z,13.8
2023-05-15T10:20:27.732Z,13.87
2023-05-15T10:21:27.652Z,13.94
2023-05-15T10:22:27.952Z,14.03
2023-05-15T10:23:28.076Z,14.01
2023-05-15T10:24:28.241Z,13.95
2023-05-15T10:25:28.628Z,13.97
2023-05-15T10:26:29.586Z,14.04
2023-05-15T10:27:30.037Z,14.18
2023-05-15T10:28:30.665Z,14.37
2023-05-15T10:29:31.025Z,14.41
2023-05-15T10:30:32.654Z,14.58
2023-05-15T10:31:32.917Z,14.55
2023-05-15T10:32:32.841Z,14.58
2023-05-15T10:33:33.779Z,14.68
2023-05-15T10:34:34.034Z,14.87
2023-05-15T10:35:34.983Z,15.02
2023-05-15T10:36:35.135Z,15.29
2023-05-15T10:37:35.985Z,15.48
2023-05-15T10:38:35.720Z,15.62
2023-05-15T10:39:36.644Z,15.52
2023-05-15T10:40:37.396Z,15.6
2023-05-15T10:41:38.316Z,15.57
2023-05-15T10:42:39.018Z,15.5
2023-05-15T10:43:39.336Z,15.36
2023-05-15T10:44:40.097Z,15.52
2023-05-15T10:45:40.619Z,15.55
2023-05-15T10:46:41.524Z,15.69
2023-05-15T10:47:41.763Z,16.05
2023-05-15T10:48:42.638Z,16.31
2023-05-15T10:49:43.224Z,16.59
2023-05-15T10:50:44.356Z,16.69
2023-05-15T10:51:44.115Z,16.82
2023-05-15T10:52:45.343Z,17.01
2023-05-15T10:53:46.126Z,17.39
2023-05-15T10:54:46.618Z,17.54
2023-05-15T10:55:47.170Z,17.66
2023-05-15T10:56:52.305Z,17.84
2023-05-15T10:58:49.370Z,18.19
2023-05-15T10:59:49.571Z,18.39
2023-05-15T11:00:50.564Z,18.63
2023-05-15T11:01:51.380Z,18.76
2023-05-15T11:02:52.216Z,18.74
2023-05-15T11:03:56.322Z,18.85
2023-05-15T11:05:54.270Z,18.91
2023-05-15T11:06:55.391Z,18.98
2023-05-15T11:07:56.312Z,19.04
2023-05-15T11:08:57.026Z,19.27
2023-05-15T11:09:57.932Z,19.42
2023-05-15T11:10:57.714Z,19.57
2023-05-15T11:11:58.717Z,19.75
2023-05-15T11:12:59.319Z,19.59
2023-05-15T11:14:00.215Z,19.57
2023-05-15T11:15:01.175Z,19.66
2023-05-15T11:16:01.717Z,19.66
2023-05-15T11:17:02.272Z,19.74
2023-05-15T11:18:02.789Z,19.77
2023-05-15T11:19:03.124Z,19.79
2023-05-15T11:20:04.171Z,19.63
2023-05-15T11:21:04.884Z,19.72
2023-05-15T11:22:06.035Z,19.85
2023-05-15T11:23:06.510Z,19.97
2023-05-15T11:24:06.474Z,20.12
2023-05-15T11:25:06.796Z,20.1
2023-05-15T11:26:07.708Z,20.12
2023-05-15T11:27:08.446Z,20.04
2023-05-15T11:28:09.256Z,20.07
2023-05-15T11:29:10.380Z,20.17
2023-05-15T11:30:11.393Z,20.17
2023-05-15T11:31:12.559Z,20.17
2023-05-15T11:32:13.340Z,20
2023-05-15T11:33:14.141Z,19.87
2023-05-15T11:34:14.860Z,19.75
2023-05-15T11:35:15.825Z,19.6
2023-05-15T11:36:16.404Z,19.39
2023-05-15T11:37:17.165Z,19.07
2023-05-15T11:38:18.269Z,18.94
2023-05-15T11:39:18.211Z,18.68
2023-05-15T11:40:19.281Z,18.6
2023-05-15T11:41:19.350Z,18.41
2023-05-15T11:42:19.642Z,18.36
2023-05-15T11:43:20.413Z,18.19
2023-05-15T11:44:21.322Z,18.05
2023-05-15T11:45:21.910Z,17.97
2023-05-15T11:46:23.084Z,17.75
2023-05-15T11:47:23.015Z,17.73
2023-05-15T11:48:24.377Z,17.72
2023-05-15T11:49:24.341Z,17.65
2023-05-15T11:50:25.945Z,17.46
2023-05-15T11:51:25.829Z,17.32
2023-05-15T11:52:26.359Z,17.24
2023-05-15T11:53:27.662Z,17.14
2023-05-15T11:54:28.374Z,17.09
2023-05-15T11:55:29.083Z,16.92
2023-05-15T11:56:29.824Z,16.77
2023-05-15T11:57:30.560Z,16.91
2023-05-15T11:58:30.836Z,16.79
2023-05-15T11:59:31.760Z,16.68
2023-05-15T12:00:32.529Z,16.57
2023-05-15T12:01:32.285Z,16.58
2023-05-15T12:02:33.312Z,16.61
2023-05-15T12:03:34.913Z,16.58
2023-05-15T12:04:35.319Z,16.51
2023-05-15T12:05:35.723Z,16.54
2023-05-15T12:06:36.667Z,16.47
2023-05-15T12:07:37.022Z,16.62
2023-05-15T12:08:38.282Z,16.61
2023-05-15T12:09:38.204Z,16.61
2023-05-15T12:10:38.514Z,16.76
2023-05-15T12:11:39.045Z,16.8
2023-05-15T12:12:39.536Z,16.83
2023-05-15T12:13:40.693Z,16.97
2023-05-15T12:14:41.597Z,17.1
2023-05-15T12:15:41.509Z,17.28
2023-05-15T12:16:42.587Z,17.49
2023-05-15T12:17:42.833Z,17.69
2023-05-15T12:18:43.125Z,17.88
2023-05-15T12:19:43.254Z,18.06
2023-05-15T12:20:44.230Z,18.27
2023-05-15T12:21:44.998Z,18.39
2023-05-15T12:22:45.751Z,18.41
2023-05-15T12:24:07.508Z,18.49
2023-05-15T12:24:47.430Z,18.37
2023-05-15T12:25:47.804Z,18.6
2023-05-15T12:26:48.504Z,18.63
2023-05-15T12:27:49.537Z,18.53
2023-05-15T12:28:50.503Z,18.48
2023-05-15T12:29:50.929Z,18.37
2023-05-15T12:30:52.106Z,18.26
2023-05-15T12:31:52.410Z,18.11
2023-05-15T12:32:52.656Z,17.93
2023-05-15T12:33:52.982Z,17.75
2023-05-15T12:34:53.569Z,17.75
2023-05-15T12:35:53.555Z,17.91
2023-05-15T12:36:54.214Z,18.02
2023-05-15T12:37:54.167Z,18.15
2023-05-15T12:38:54.831Z,18.31
2023-05-15T12:39:55.595Z,18.48
2023-05-15T12:40:55.765Z,18.55
2023-05-15T12:41:55.903Z,18.71
2023-05-15T12:42:56.064Z,18.78
2023-05-15T12:43:56.068Z,18.96
2023-05-15T12:44:57.438Z,18.97
2023-05-15T12:45:58.154Z,19.07
2023-05-15T12:46:58.308Z,19.34
2023-05-15T12:47:59.635Z,19.39
2023-05-15T12:48:59.663Z,19.56
2023-05-15T12:50:00.573Z,19.67
2023-05-15T12:51:01.093Z,19.55
2023-05-15T12:52:01.034Z,19.47
2023-05-15T12:53:01.766Z,19.49
2023-05-15T12:54:03.025Z,19.56
2023-05-15T12:55:03.762Z,19.64
2023-05-15T12:56:04.966Z,19.44
2023-05-15T12:57:07.653Z,19.3
2023-05-15T13:00:07.163Z,19.26
2023-05-15T13:01:08.491Z,19.29
2023-05-15T13:02:08.884Z,19.26
2023-05-15T13:03:09.681Z,19.42
2023-05-15T13:04:10.340Z,19.53
2023-05-15T13:05:10.276Z,19.48
2023-05-15T13:06:11.482Z,19.67
2023-05-15T13:07:12.095Z,19.79
2023-05-15T13:08:13.117Z,19.64
2023-05-15T13:09:13.132Z,19.63
2023-05-15T13:10:14.275Z,19.57
2023-05-15T13:11:14.640Z,19.49
2023-05-15T13:12:15.275Z,19.52
2023-05-15T13:13:15.995Z,19.62
2023-05-15T13:14:16.650Z,19.48
2023-05-15T13:15:17.180Z,19.39
2023-05-15T13:16:18.462Z,19.26
2023-05-15T13:17:19.239Z,19.09
2023-05-15T13:18:19.678Z,18.88
2023-05-15T13:19:20.576Z,18.76
2023-05-15T13:20:20.533Z,18.51
2023-05-15T13:21:20.947Z,18.21
2023-05-15T13:22:21.863Z,17.97
2023-05-15T13:23:22.124Z,17.73